createdAt,value
2019-01-18T00:00:43.728Z,0
2019-01-18T00:01:29.081Z,0
2019-01-18T00:02:29.089Z,0
2019-01-18T00:03:29.103Z,0
2019-01-18T00:04:29.116Z,0
2019-01-18T00:05:29.134Z,0
2019-01-18T00:06:29.204Z,0
2019-01-18T00:07:29.210Z,0
2019-01-18T00:08:29.174Z,0
2019-01-18T00:09:29.187Z,0
2019-01-18T00:10:29.197Z,0
2019-01-18T00:11:29.212Z,0
2019-01-18T00:12:29.236Z,0
2019-01-18T00:13:29.237Z,0
2019-01-18T00:14:29.259Z,0
2019-01-18T00:15:29.268Z,0
2019-01-18T00:16:43.942Z,0
2019-01-18T00:17:29.290Z,0
2019-01-18T00:18:29.311Z,0
2019-01-18T00:19:29.324Z,0
2019-01-18T00:20:29.373Z,0
2019-01-18T00:21:29.346Z,0
2019-01-18T00:22:29.409Z,0
2019-01-18T00:23:29.382Z,0
2019-01-18T00:24:29.384Z,0
2019-01-18T00:25:29.399Z,0
2019-01-18T00:26:29.466Z,0
2019-01-18T00:27:29.190Z,0
2019-01-18T00:28:29.439Z,0
2019-01-18T00:29:34.411Z,0
2019-01-18T00:31:44.195Z,0
2019-01-18T00:34:29.573Z,0
2019-01-18T00:35:29.540Z,0
2019-01-18T00:36:29.548Z,0
2019-01-18T00:37:29.661Z,0
2019-01-18T00:38:29.576Z,0
2019-01-18T00:39:29.593Z,0
2019-01-18T00:40:29.654Z,0
2019-01-18T00:41:29.620Z,0
2019-01-18T00:42:29.682Z,0
2019-01-18T00:43:29.643Z,0
2019-01-18T00:44:29.668Z,0
2019-01-18T00:45:29.674Z,0
2019-01-18T00:46:29.688Z,0
2019-01-18T00:47:29.700Z,0
2019-01-18T00:48:29.757Z,0
2019-01-18T00:49:29.723Z,0
2019-01-18T00:50:29.740Z,0
2019-01-18T00:51:29.800Z,0
2019-01-18T00:52:29.764Z,0
2019-01-18T00:53:29.825Z,0
2019-01-18T00:54:29.820Z,0
2019-01-18T00:55:29.806Z,0
2019-01-18T00:56:29.813Z,0
2019-01-18T00:57:29.828Z,0
2019-01-18T00:58:29.843Z,0
2019-01-18T00:59:36.136Z,0
2019-01-18T01:00:44.534Z,0
2019-01-18T01:01:29.891Z,0
2019-01-18T01:02:29.896Z,0
2019-01-18T01:03:44.572Z,0
2019-01-18T01:04:29.972Z,0
2019-01-18T01:05:29.942Z,0
2019-01-18T01:06:29.953Z,0
2019-01-18T01:07:29.963Z,0
2019-01-18T01:08:29.980Z,0
2019-01-18T01:09:29.804Z,0
2019-01-18T01:10:30.001Z,0
2019-01-18T01:11:30.068Z,0
2019-01-18T01:12:30.030Z,0
2019-01-18T01:13:30.038Z,0
2019-01-18T01:14:30.052Z,0
2019-01-18T01:15:30.121Z,0
2019-01-18T01:16:44.745Z,0
2019-01-18T01:17:44.755Z,0
2019-01-18T01:18:30.104Z,0
2019-01-18T01:19:44.783Z,0
2019-01-18T01:20:30.132Z,0
2019-01-18T01:21:44.818Z,0
2019-01-18T01:22:30.224Z,0
2019-01-18T01:23:30.173Z,0
2019-01-18T01:24:30.183Z,0
2019-01-18T01:26:30.213Z,0
2019-01-18T01:27:30.328Z,0
2019-01-18T01:28:30.244Z,0
2019-01-18T01:29:30.250Z,0
2019-01-18T01:30:44.931Z,0
2019-01-18T01:31:44.940Z,0
2019-01-18T01:32:30.288Z,0
2019-01-18T01:33:30.302Z,0
2019-01-18T01:35:44.991Z,0
2019-01-18T01:36:30.353Z,0
2019-01-18T01:37:30.359Z,0
2019-01-18T01:38:30.373Z,0
2019-01-18T01:40:44.810Z,0
2019-01-18T01:41:30.408Z,0
2019-01-18T01:42:45.137Z,0
2019-01-18T01:43:30.434Z,0
2019-01-18T01:44:30.458Z,0
2019-01-18T01:45:30.457Z,0
2019-01-18T01:46:30.483Z,0
2019-01-18T01:47:45.149Z,0
2019-01-18T01:48:45.162Z,0
2019-01-18T01:49:30.511Z,0
2019-01-18T01:50:30.525Z,0
2019-01-18T01:51:45.200Z,0
2019-01-18T01:52:30.551Z,0
2019-01-18T01:53:30.566Z,0
2019-01-18T01:54:30.578Z,0
2019-01-18T01:55:30.590Z,0
2019-01-18T01:56:30.603Z,0
2019-01-18T01:57:30.615Z,0
2019-01-18T01:58:30.660Z,0
2019-01-18T01:59:30.646Z,0
2019-01-18T02:00:30.653Z,0
2019-01-18T02:01:30.666Z,0
2019-01-18T02:02:30.681Z,0
2019-01-18T02:03:45.355Z,0
2019-01-18T02:04:45.373Z,0
2019-01-18T02:05:45.394Z,0
2019-01-18T02:06:45.397Z,0
2019-01-18T02:07:30.744Z,0
2019-01-18T02:08:30.755Z,0
2019-01-18T02:09:30.767Z,0
2019-01-18T02:10:30.784Z,0
2019-01-18T02:11:30.793Z,0
2019-01-18T02:12:30.804Z,0
2019-01-18T02:13:30.817Z,0
2019-01-18T02:14:30.880Z,0
2019-01-18T02:15:30.844Z,0
2019-01-18T02:16:30.854Z,0
2019-01-18T02:17:45.534Z,0
2019-01-18T02:18:30.884Z,0
2019-01-18T02:19:30.893Z,0
2019-01-18T02:20:30.909Z,0
2019-01-18T02:21:30.917Z,0
2019-01-18T02:22:30.684Z,0
2019-01-18T02:23:30.939Z,0
2019-01-18T02:24:30.956Z,0
2019-01-18T02:25:32.398Z,0
2019-01-18T02:26:30.978Z,0
2019-01-18T02:27:30.991Z,0
2019-01-18T02:28:31.066Z,0
2019-01-18T02:29:31.018Z,0
2019-01-18T02:30:31.048Z,0
2019-01-18T02:31:31.048Z,0
2019-01-18T02:32:31.053Z,0
2019-01-18T02:33:31.074Z,0
2019-01-18T02:34:31.082Z,0
2019-01-18T02:35:45.856Z,0
2019-01-18T02:36:45.524Z,0
2019-01-18T02:37:31.123Z,0
2019-01-18T02:38:45.840Z,0
2019-01-18T02:39:31.142Z,0
2019-01-18T02:40:31.155Z,0
2019-01-18T02:41:31.168Z,0
2019-01-18T02:42:31.277Z,0
2019-01-18T02:43:31.203Z,0
2019-01-18T02:44:31.207Z,0
2019-01-18T02:45:31.215Z,0
2019-01-18T02:46:31.230Z,0
2019-01-18T02:47:31.243Z,0
2019-01-18T02:49:31.270Z,0
2019-01-18T02:50:31.309Z,0
2019-01-18T02:51:31.291Z,0
2019-01-18T02:52:45.964Z,0
2019-01-18T02:53:31.386Z,0
2019-01-18T02:54:46.036Z,0
2019-01-18T02:55:36.161Z,0
2019-01-18T02:56:31.350Z,0
2019-01-18T02:57:31.358Z,0
2019-01-18T02:59:31.149Z,0
2019-01-18T03:00:31.427Z,0
2019-01-18T03:01:31.427Z,0
2019-01-18T03:02:31.437Z,0
2019-01-18T03:03:31.537Z,0
2019-01-18T03:04:46.111Z,0
2019-01-18T03:05:31.472Z,0
2019-01-18T03:06:31.489Z,0
2019-01-18T03:07:31.492Z,0
2019-01-18T03:08:31.544Z,0
2019-01-18T03:09:46.181Z,0
2019-01-18T03:10:46.185Z,0
2019-01-18T03:11:31.535Z,0
2019-01-18T03:12:31.547Z,0
2019-01-18T03:13:31.567Z,0
2019-01-18T03:14:46.354Z,0
2019-01-18T03:15:31.579Z,0
2019-01-18T03:16:31.607Z,0
2019-01-18T03:17:31.626Z,0
2019-01-18T03:18:31.632Z,0
2019-01-18T03:19:31.685Z,0
2019-01-18T03:20:31.703Z,0
2019-01-18T03:21:31.409Z,0
2019-01-18T03:22:31.684Z,0
2019-01-18T03:23:31.694Z,0
2019-01-18T03:24:31.722Z,0
2019-01-18T03:25:31.763Z,0
2019-01-18T03:26:46.392Z,0
2019-01-18T03:28:46.426Z,0
2019-01-18T03:29:31.755Z,0
2019-01-18T03:30:31.827Z,0
2019-01-18T03:31:31.794Z,0
2019-01-18T03:33:31.836Z,0
2019-01-18T03:34:31.915Z,0
2019-01-18T03:35:46.491Z,0
2019-01-18T03:36:46.498Z,0
2019-01-18T03:37:31.853Z,0
2019-01-18T03:38:31.873Z,0
2019-01-18T03:39:31.878Z,0
2019-01-18T03:40:31.942Z,0
2019-01-18T03:42:01.230Z,0
2019-01-18T03:42:31.920Z,0
2019-01-18T03:43:31.920Z,0
2019-01-18T03:44:31.949Z,0
2019-01-18T03:45:46.614Z,0
2019-01-18T03:46:32.014Z,0
2019-01-18T03:47:46.637Z,0
2019-01-18T03:48:31.989Z,0
2019-01-18T03:49:32.015Z,0
2019-01-18T03:50:32.006Z,0
2019-01-18T03:52:46.743Z,0
2019-01-18T03:53:32.047Z,0
2019-01-18T03:54:32.072Z,0
2019-01-18T03:55:32.068Z,0
2019-01-18T03:56:32.076Z,0
2019-01-18T03:57:32.089Z,0
2019-01-18T03:58:32.114Z,0
2019-01-18T03:59:32.115Z,0
2019-01-18T04:00:33.636Z,0
2019-01-18T04:01:32.137Z,0
2019-01-18T04:02:46.819Z,0
2019-01-18T04:03:32.218Z,0
2019-01-18T04:04:32.663Z,0
2019-01-18T04:05:32.194Z,0
2019-01-18T04:06:32.205Z,0
2019-01-18T04:07:32.210Z,0
2019-01-18T04:08:32.224Z,0
2019-01-18T04:09:32.241Z,0
2019-01-18T04:10:32.257Z,0
2019-01-18T04:11:32.283Z,0
2019-01-18T04:13:46.944Z,0
2019-01-18T04:14:33.173Z,0
2019-01-18T04:16:46.989Z,0
2019-01-18T04:17:32.336Z,0
2019-01-18T04:18:47.015Z,0
2019-01-18T04:19:32.361Z,0
2019-01-18T04:20:32.368Z,0
2019-01-18T04:21:32.521Z,0
2019-01-18T04:22:32.396Z,0
2019-01-18T04:23:32.403Z,0
2019-01-18T04:24:32.475Z,0
2019-01-18T04:25:32.462Z,0
2019-01-18T04:26:32.479Z,0
2019-01-18T04:27:32.505Z,0
2019-01-18T04:28:34.100Z,0
2019-01-18T04:29:47.190Z,0
2019-01-18T04:31:32.503Z,0
2019-01-18T04:32:32.521Z,0
2019-01-18T04:33:32.537Z,0
2019-01-18T04:34:32.544Z,0
2019-01-18T04:35:32.602Z,0
2019-01-18T04:36:32.613Z,0
2019-01-18T04:37:32.579Z,0
2019-01-18T04:38:32.587Z,0
2019-01-18T04:39:47.263Z,0
2019-01-18T04:40:32.617Z,0
2019-01-18T04:41:32.620Z,0
2019-01-18T04:42:32.641Z,0
2019-01-18T04:43:32.698Z,0
2019-01-18T04:45:47.336Z,0
2019-01-18T04:46:32.687Z,0
2019-01-18T04:47:32.698Z,0
2019-01-18T04:48:32.706Z,0
2019-01-18T04:49:32.766Z,0
2019-01-18T04:50:32.736Z,0
2019-01-18T04:51:32.749Z,0
2019-01-18T04:52:32.926Z,0
2019-01-18T04:53:32.765Z,0
2019-01-18T04:54:32.780Z,0
2019-01-18T04:55:32.836Z,0
2019-01-18T04:57:32.815Z,0
2019-01-18T04:58:48.463Z,0
2019-01-18T04:59:32.844Z,0
2019-01-18T05:00:32.899Z,0
2019-01-18T05:01:47.528Z,0
2019-01-18T05:02:32.875Z,0
2019-01-18T05:03:32.889Z,0
2019-01-18T05:04:34.436Z,0
2019-01-18T05:05:32.933Z,0
2019-01-18T05:06:32.927Z,0
2019-01-18T05:07:32.933Z,0
2019-01-18T05:08:47.610Z,0
2019-01-18T05:09:32.959Z,0
2019-01-18T05:10:32.983Z,0
2019-01-18T05:11:32.980Z,0
2019-01-18T05:12:32.993Z,0
2019-01-18T05:13:33.021Z,0
2019-01-18T05:14:33.115Z,0
2019-01-18T05:15:33.035Z,0
2019-01-18T05:16:47.702Z,0
2019-01-18T05:17:33.074Z,0
2019-01-18T05:19:33.080Z,0
2019-01-18T05:20:33.093Z,0
2019-01-18T05:21:33.099Z,0
2019-01-18T05:22:33.110Z,0
2019-01-18T05:23:33.126Z,0
2019-01-18T05:24:33.285Z,0
2019-01-18T05:27:33.177Z,0
2019-01-18T05:28:33.191Z,0
2019-01-18T05:29:33.256Z,0
2019-01-18T05:31:33.218Z,0
2019-01-18T05:33:33.242Z,0
2019-01-18T05:34:33.265Z,0
2019-01-18T05:35:33.270Z,0
2019-01-18T05:36:33.326Z,0
2019-01-18T05:37:33.403Z,0
2019-01-18T05:38:47.969Z,0
2019-01-18T05:39:33.316Z,0
2019-01-18T05:40:33.332Z,0
2019-01-18T05:41:33.338Z,0
2019-01-18T05:42:33.407Z,0
2019-01-18T05:43:33.363Z,0
2019-01-18T05:44:33.377Z,0
2019-01-18T05:45:33.386Z,0
2019-01-18T05:46:33.396Z,0
2019-01-18T05:47:33.408Z,0
2019-01-18T05:48:48.118Z,0
2019-01-18T05:49:33.439Z,0
2019-01-18T05:50:33.447Z,0
2019-01-18T05:51:33.467Z,0
2019-01-18T05:52:34.943Z,0
2019-01-18T05:53:33.481Z,0
2019-01-18T05:54:33.495Z,0
2019-01-18T05:55:33.506Z,0
2019-01-18T05:56:33.520Z,0
2019-01-18T05:57:48.191Z,0
2019-01-18T05:59:48.221Z,0
2019-01-18T06:00:33.583Z,0
2019-01-18T06:01:34.233Z,0
2019-01-18T06:02:48.250Z,0
2019-01-18T06:03:33.601Z,0
2019-01-18T06:04:48.272Z,0
2019-01-18T06:05:33.630Z,0
2019-01-18T06:06:33.642Z,0
2019-01-18T06:07:33.663Z,0
2019-01-18T06:08:33.657Z,0
2019-01-18T06:09:33.738Z,0
2019-01-18T06:10:33.681Z,0
2019-01-18T06:11:33.695Z,0
2019-01-18T06:12:33.707Z,0
2019-01-18T06:13:48.430Z,0
2019-01-18T06:14:33.729Z,0
2019-01-18T06:16:48.416Z,0
2019-01-18T06:17:33.771Z,0
2019-01-18T06:18:33.780Z,0
2019-01-18T06:19:33.837Z,0
2019-01-18T06:20:48.461Z,0
2019-01-18T06:21:33.821Z,0
2019-01-18T06:22:33.826Z,0
2019-01-18T06:23:33.837Z,0
2019-01-18T06:24:33.856Z,0
2019-01-18T06:25:48.528Z,0
2019-01-18T06:26:33.888Z,0
2019-01-18T06:27:33.899Z,0
2019-01-18T06:28:33.645Z,0
2019-01-18T06:29:33.958Z,0
2019-01-18T06:30:33.926Z,0
2019-01-18T06:31:33.929Z,0
2019-01-18T06:32:33.942Z,0
2019-01-18T06:34:33.970Z,4
2019-01-18T06:35:34.083Z,0
2019-01-18T06:36:48.660Z,4
2019-01-18T06:37:33.998Z,4
2019-01-18T06:38:34.014Z,4
2019-01-18T06:40:34.085Z,8
2019-01-18T06:41:34.047Z,12
2019-01-18T06:42:48.725Z,12
2019-01-18T06:43:48.736Z,16
2019-01-18T06:44:34.081Z,20
2019-01-18T06:45:34.093Z,24
2019-01-18T06:46:48.773Z,32
2019-01-18T06:47:34.166Z,40
2019-01-18T06:48:34.183Z,48
2019-01-18T06:49:48.808Z,60
2019-01-18T06:50:48.822Z,68
2019-01-18T06:51:48.834Z,80
2019-01-18T06:52:34.187Z,92
2019-01-18T06:54:34.202Z,128
2019-01-18T06:55:34.210Z,148
2019-01-18T06:56:34.968Z,168
2019-01-18T06:57:34.239Z,188
2019-01-18T06:58:34.251Z,212
2019-01-18T06:59:48.923Z,236
2019-01-18T07:00:34.376Z,256
2019-01-18T07:01:34.293Z,280
2019-01-18T07:02:34.299Z,308
2019-01-18T07:03:34.354Z,336
2019-01-18T07:04:40.443Z,360
2019-01-18T07:05:34.387Z,388
2019-01-18T07:06:34.356Z,416
2019-01-18T07:07:34.350Z,448
2019-01-18T07:08:34.360Z,484
2019-01-18T07:09:34.375Z,516
2019-01-18T07:10:34.392Z,552
2019-01-18T07:12:34.410Z,620
2019-01-18T07:13:34.175Z,656
2019-01-18T07:14:34.446Z,692
2019-01-18T07:15:34.541Z,728
2019-01-18T07:16:34.465Z,768
2019-01-18T07:17:34.467Z,808
2019-01-18T07:18:34.501Z,844
2019-01-18T07:19:34.494Z,884
2019-01-18T07:21:34.514Z,964
2019-01-18T07:22:34.525Z,1008
2019-01-18T07:23:49.198Z,1060
2019-01-18T07:24:34.604Z,1088
2019-01-18T07:25:34.562Z,1132
2019-01-18T07:26:34.571Z,1180
2019-01-18T07:27:34.592Z,1228
2019-01-18T07:28:34.594Z,1272
2019-01-18T07:30:34.623Z,1372
2019-01-18T07:31:34.632Z,1424
2019-01-18T07:32:34.658Z,1472
2019-01-18T07:33:49.335Z,1524
2019-01-18T07:34:34.671Z,1556
2019-01-18T07:35:34.673Z,1600
2019-01-18T07:37:34.698Z,1700
2019-01-18T07:38:34.708Z,1740
2019-01-18T07:39:49.388Z,1800
2019-01-18T07:40:34.732Z,1832
2019-01-18T07:41:34.795Z,1864
2019-01-18T07:42:34.756Z,1892
2019-01-18T07:43:34.527Z,1936
2019-01-18T07:44:49.446Z,1992
2019-01-18T07:45:34.796Z,2024
2019-01-18T07:46:34.804Z,2064
2019-01-18T07:47:34.819Z,2096
2019-01-18T07:48:49.540Z,2132
2019-01-18T07:49:34.840Z,2156
2019-01-18T07:50:34.853Z,2180
2019-01-18T07:51:49.525Z,2208
2019-01-18T07:52:49.532Z,2228
2019-01-18T07:53:34.882Z,2248
2019-01-18T07:54:34.949Z,2280
2019-01-18T07:55:49.722Z,2316
2019-01-18T07:56:34.918Z,2332
2019-01-18T07:57:34.937Z,2360
2019-01-18T07:58:34.939Z,2384
2019-01-18T07:59:34.959Z,2408
2019-01-18T08:00:34.970Z,2440
2019-01-18T08:01:35.140Z,2460
2019-01-18T08:02:34.990Z,2484
2019-01-18T08:03:35.007Z,2504
2019-01-18T08:04:35.051Z,2528
2019-01-18T08:05:35.022Z,2548
2019-01-18T08:08:34.828Z,2616
2019-01-18T08:09:35.072Z,2636
2019-01-18T08:10:35.080Z,2660
2019-01-18T08:11:49.754Z,2692
2019-01-18T08:12:35.105Z,2724
2019-01-18T08:13:35.117Z,2768
2019-01-18T08:14:35.125Z,2784
2019-01-18T08:15:35.159Z,2776
2019-01-18T08:16:35.150Z,2776
2019-01-18T08:17:35.159Z,2792
2019-01-18T08:18:35.220Z,2812
2019-01-18T08:19:35.186Z,2828
2019-01-18T08:20:35.199Z,2844
2019-01-18T08:22:49.882Z,2880
2019-01-18T08:23:35.279Z,2900
2019-01-18T08:24:35.253Z,2924
2019-01-18T08:25:35.261Z,2968
2019-01-18T08:26:49.930Z,3404
2019-01-18T08:27:35.279Z,3840
2019-01-18T08:28:35.293Z,4436
2019-01-18T08:29:35.352Z,5028
2019-01-18T08:31:36.246Z,5844
2019-01-18T08:32:35.337Z,5940
2019-01-18T08:33:35.354Z,5976
2019-01-18T08:34:35.379Z,5952
2019-01-18T08:35:35.378Z,5968
2019-01-18T08:36:35.404Z,5956
2019-01-18T08:37:35.401Z,5960
2019-01-18T08:38:35.416Z,5968
2019-01-18T08:40:35.479Z,5968
2019-01-18T08:41:35.457Z,5964
2019-01-18T08:42:35.456Z,5984
2019-01-18T08:43:35.470Z,5984
2019-01-18T08:45:35.498Z,6008
2019-01-18T08:46:35.252Z,6020
2019-01-18T08:47:35.561Z,5972
2019-01-18T08:48:35.528Z,5976
2019-01-18T08:49:50.203Z,5984
2019-01-18T08:50:50.213Z,6000
2019-01-18T08:51:35.559Z,6036
2019-01-18T08:52:35.574Z,6028
2019-01-18T08:53:50.301Z,5980
2019-01-18T08:54:35.610Z,6000
2019-01-18T08:55:50.284Z,6016
2019-01-18T08:56:35.634Z,6032
2019-01-18T08:57:35.639Z,6028
2019-01-18T08:58:50.312Z,6028
2019-01-18T08:59:35.692Z,6020
2019-01-18T09:00:35.682Z,6024
2019-01-18T09:01:40.613Z,6052
2019-01-18T09:02:35.715Z,6056
2019-01-18T09:03:35.712Z,6036
2019-01-18T09:04:35.740Z,6072
2019-01-18T09:05:35.732Z,6072
2019-01-18T09:06:35.815Z,6064
2019-01-18T09:07:50.417Z,5932
2019-01-18T09:08:35.768Z,5992
2019-01-18T09:09:35.782Z,6124
2019-01-18T09:10:35.796Z,6128
2019-01-18T09:11:50.517Z,6148
2019-01-18T09:12:35.827Z,6140
2019-01-18T09:13:35.888Z,6164
2019-01-18T09:14:50.536Z,6204
2019-01-18T09:15:35.860Z,6224
2019-01-18T09:16:35.873Z,6228
2019-01-18T09:17:35.880Z,6232
2019-01-18T09:18:35.890Z,6240
2019-01-18T09:19:35.905Z,6272
2019-01-18T09:20:50.580Z,6292
2019-01-18T09:21:35.924Z,6288
2019-01-18T09:22:35.946Z,6320
2019-01-18T09:23:35.949Z,6332
2019-01-18T09:24:35.961Z,6352
2019-01-18T09:25:50.637Z,6340
2019-01-18T09:26:35.986Z,6360
2019-01-18T09:27:50.665Z,6340
2019-01-18T09:28:36.016Z,6000
2019-01-18T09:29:36.079Z,6376
2019-01-18T09:30:50.699Z,6328
2019-01-18T09:31:42.261Z,6320
2019-01-18T09:32:50.732Z,6288
2019-01-18T09:33:36.072Z,6296
2019-01-18T09:34:36.084Z,6276
2019-01-18T09:35:36.111Z,6272
2019-01-18T09:36:36.214Z,6280
2019-01-18T09:37:36.128Z,6276
2019-01-18T09:38:36.177Z,6020
2019-01-18T09:39:36.151Z,6080
2019-01-18T09:40:36.169Z,6288
2019-01-18T09:41:36.222Z,6256
2019-01-18T09:43:50.860Z,6196
2019-01-18T09:44:36.217Z,6244
2019-01-18T09:46:50.899Z,6296
2019-01-18T09:47:36.289Z,6296
2019-01-18T09:48:36.271Z,6252
2019-01-18T09:50:36.295Z,6288
2019-01-18T09:51:50.964Z,6316
2019-01-18T09:52:36.069Z,6360
2019-01-18T09:53:36.400Z,6336
2019-01-18T09:54:36.337Z,6264
2019-01-18T09:55:36.525Z,6328
2019-01-18T09:56:36.413Z,6536
2019-01-18T09:58:51.051Z,6372
2019-01-18T09:59:51.067Z,6384
2019-01-18T10:00:36.421Z,6380
2019-01-18T10:01:54.302Z,6340
2019-01-18T10:02:36.438Z,6376
2019-01-18T10:03:36.451Z,6364
2019-01-18T10:04:36.478Z,6376
2019-01-18T10:05:36.487Z,6384
2019-01-18T10:06:36.496Z,6448
2019-01-18T10:07:51.165Z,6396
2019-01-18T10:08:36.514Z,6440
2019-01-18T10:09:36.526Z,6432
2019-01-18T10:10:36.535Z,6408
2019-01-18T10:11:51.211Z,6428
2019-01-18T10:12:36.562Z,6404
2019-01-18T10:13:51.287Z,6172
2019-01-18T10:14:51.249Z,5980
2019-01-18T10:15:36.599Z,5824
2019-01-18T10:16:36.616Z,5588
2019-01-18T10:17:36.630Z,5376
2019-01-18T10:18:36.639Z,5052
2019-01-18T10:19:36.757Z,4964
2019-01-18T10:20:36.668Z,4832
2019-01-18T10:21:36.671Z,4768
2019-01-18T10:22:36.703Z,4560
2019-01-18T10:23:36.706Z,4412
2019-01-18T10:24:51.379Z,4396
2019-01-18T10:25:36.531Z,4288
2019-01-18T10:26:36.744Z,4116
2019-01-18T10:27:51.416Z,4048
2019-01-18T10:28:36.820Z,3988
2019-01-18T10:29:36.781Z,3876
2019-01-18T10:31:55.980Z,3904
2019-01-18T10:32:36.879Z,3952
2019-01-18T10:33:51.492Z,3780
2019-01-18T10:34:36.891Z,3724
2019-01-18T10:35:36.864Z,3684
2019-01-18T10:36:36.619Z,3632
2019-01-18T10:37:36.883Z,3680
2019-01-18T10:38:36.943Z,3728
2019-01-18T10:39:36.961Z,3520
2019-01-18T10:40:36.962Z,3608
2019-01-18T10:41:36.932Z,3608
2019-01-18T10:42:36.698Z,3620
2019-01-18T10:43:36.962Z,3608
2019-01-18T10:44:51.630Z,3608
2019-01-18T10:45:36.985Z,3596
2019-01-18T10:46:51.656Z,3588
2019-01-18T10:47:37.009Z,3592
2019-01-18T10:49:51.698Z,3564
2019-01-18T10:50:37.048Z,3540
2019-01-18T10:51:37.060Z,3552
2019-01-18T10:52:37.072Z,3588
2019-01-18T10:53:37.088Z,3604
2019-01-18T10:54:37.096Z,3612
2019-01-18T10:55:37.166Z,3600
2019-01-18T10:56:37.130Z,3440
2019-01-18T10:58:37.199Z,3636
2019-01-18T10:59:37.161Z,3664
2019-01-18T11:01:37.194Z,3752
2019-01-18T11:02:51.867Z,3732
2019-01-18T11:03:37.284Z,3708
2019-01-18T11:04:37.232Z,3708
2019-01-18T11:05:51.900Z,3744
2019-01-18T11:06:37.351Z,3756
2019-01-18T11:07:37.264Z,3780
2019-01-18T11:08:37.279Z,3760
2019-01-18T11:09:37.289Z,3076
2019-01-18T11:10:37.310Z,3776
2019-01-18T11:11:37.323Z,3268
2019-01-18T11:12:37.327Z,3488
2019-01-18T11:13:37.444Z,3184
2019-01-18T11:14:37.356Z,3748
2019-01-18T11:15:40.847Z,3696
2019-01-18T11:16:37.380Z,3676
2019-01-18T11:17:52.061Z,3684
2019-01-18T11:18:37.409Z,3680
2019-01-18T11:19:37.414Z,3688
2019-01-18T11:20:37.445Z,3672
2019-01-18T11:21:52.109Z,3688
2019-01-18T11:22:37.508Z,3676
2019-01-18T11:23:37.466Z,3680
2019-01-18T11:24:37.490Z,3688
2019-01-18T11:25:39.296Z,3696
2019-01-18T11:26:37.509Z,3688
2019-01-18T11:27:37.520Z,3664
2019-01-18T11:28:37.530Z,3660
2019-01-18T11:29:37.587Z,3652
2019-01-18T11:30:52.241Z,3692
2019-01-18T11:31:38.673Z,3692
2019-01-18T11:32:37.583Z,3696
2019-01-18T11:33:37.596Z,3688
2019-01-18T11:34:52.272Z,3660
2019-01-18T11:35:37.622Z,3648
2019-01-18T11:36:56.398Z,3656
2019-01-18T11:37:37.649Z,3656
2019-01-18T11:38:37.715Z,3668
2019-01-18T11:39:37.676Z,3688
2019-01-18T11:40:52.406Z,3728
2019-01-18T11:41:52.383Z,3752
2019-01-18T11:42:37.720Z,3784
2019-01-18T11:43:37.726Z,3544
2019-01-18T11:44:52.403Z,3736
2019-01-18T11:45:37.751Z,3676
2019-01-18T11:46:37.764Z,3696
2019-01-18T11:47:52.442Z,3688
2019-01-18T11:48:37.796Z,3660
2019-01-18T11:49:52.468Z,3648
2019-01-18T11:50:37.816Z,3652
2019-01-18T11:52:37.846Z,3668
2019-01-18T11:53:37.858Z,3648
2019-01-18T11:54:37.875Z,3668
2019-01-18T11:55:37.882Z,3676
2019-01-18T11:56:37.893Z,3668
2019-01-18T11:57:37.911Z,3708
2019-01-18T11:58:38.021Z,3712
2019-01-18T11:59:37.937Z,3736
2019-01-18T12:00:57.013Z,3732
2019-01-18T12:01:37.959Z,3724
2019-01-18T12:02:37.974Z,3724
2019-01-18T12:03:52.665Z,3732
2019-01-18T12:04:38.002Z,3724
2019-01-18T12:05:38.019Z,3724
2019-01-18T12:06:38.034Z,3704
2019-01-18T12:07:38.043Z,3708
2019-01-18T12:08:52.740Z,3716
2019-01-18T12:09:38.117Z,3724
2019-01-18T12:10:38.077Z,3708
2019-01-18T12:11:38.092Z,3716
2019-01-18T12:12:38.104Z,3704
2019-01-18T12:13:38.120Z,3708
2019-01-18T12:14:52.795Z,3716
2019-01-18T12:15:38.152Z,3708
2019-01-18T12:16:38.258Z,3696
2019-01-18T12:17:52.831Z,3712
2019-01-18T12:18:38.185Z,3688
2019-01-18T12:19:38.213Z,3696
2019-01-18T12:20:52.873Z,3704
2019-01-18T12:21:44.375Z,3696
2019-01-18T12:22:52.897Z,3700
2019-01-18T12:23:38.249Z,3696
2019-01-18T12:24:52.981Z,3708
2019-01-18T12:25:38.283Z,3712
2019-01-18T12:26:38.331Z,3700
2019-01-18T12:27:38.302Z,3704
2019-01-18T12:28:38.068Z,3696
2019-01-18T12:29:38.323Z,3692
2019-01-18T12:30:38.398Z,3640
2019-01-18T12:31:38.357Z,3712
2019-01-18T12:32:38.369Z,3712
2019-01-18T12:33:38.376Z,3704
2019-01-18T12:34:38.802Z,3724
2019-01-18T12:35:38.405Z,3720
2019-01-18T12:36:38.431Z,3724
2019-01-18T12:38:38.443Z,3728
2019-01-18T12:39:38.455Z,3732
2019-01-18T12:40:53.139Z,3724
2019-01-18T12:42:38.495Z,3712
2019-01-18T12:43:38.508Z,3704
2019-01-18T12:45:38.537Z,3712
2019-01-18T12:46:38.552Z,3700
2019-01-18T12:47:38.560Z,3704
2019-01-18T12:48:38.616Z,3708
2019-01-18T12:49:53.353Z,3712
2019-01-18T12:50:53.262Z,3716
2019-01-18T12:51:38.671Z,3712
2019-01-18T12:52:38.630Z,3704
2019-01-18T12:54:38.657Z,3692
2019-01-18T12:56:53.345Z,3680
2019-01-18T12:57:38.694Z,3680
2019-01-18T12:58:38.723Z,3680
2019-01-18T12:59:38.718Z,3668
2019-01-18T13:00:38.732Z,3676
2019-01-18T13:01:38.747Z,3672
2019-01-18T13:02:42.554Z,3656
2019-01-18T13:03:38.768Z,3656
2019-01-18T13:04:38.835Z,3660
2019-01-18T13:05:38.903Z,3652
2019-01-18T13:06:53.527Z,3652
2019-01-18T13:07:53.485Z,3648
2019-01-18T13:08:53.549Z,3628
2019-01-18T13:09:38.859Z,3636
2019-01-18T13:10:53.287Z,3632
2019-01-18T13:11:53.596Z,3632
2019-01-18T13:12:38.901Z,3624
2019-01-18T13:13:38.905Z,3624
2019-01-18T13:14:38.918Z,3612
2019-01-18T13:15:38.938Z,3600
2019-01-18T13:16:38.992Z,3588
2019-01-18T13:17:53.639Z,3588
2019-01-18T13:18:38.974Z,3564
2019-01-18T13:19:38.983Z,3580
2019-01-18T13:20:39.046Z,3576
2019-01-18T13:21:39.022Z,3556
2019-01-18T13:22:39.080Z,3556
2019-01-18T13:23:39.093Z,3540
2019-01-18T13:24:53.712Z,3524
2019-01-18T13:26:39.078Z,3516
2019-01-18T13:27:39.096Z,3512
2019-01-18T13:28:39.105Z,3508
2019-01-18T13:29:39.163Z,3504
2019-01-18T13:30:39.128Z,3488
2019-01-18T13:31:39.142Z,3472
2019-01-18T13:32:44.118Z,3468
2019-01-18T13:33:39.170Z,3464
2019-01-18T13:34:39.227Z,3456
2019-01-18T13:35:39.192Z,3444
2019-01-18T13:36:39.206Z,3424
2019-01-18T13:37:39.232Z,3412
2019-01-18T13:38:39.236Z,3404
2019-01-18T13:41:39.274Z,3356
2019-01-18T13:42:39.286Z,3344
2019-01-18T13:43:53.963Z,3336
2019-01-18T13:44:46.064Z,3316
2019-01-18T13:45:39.327Z,3304
2019-01-18T13:46:39.340Z,3284
2019-01-18T13:47:39.403Z,3272
2019-01-18T13:48:39.366Z,3244
2019-01-18T13:49:39.378Z,3220
2019-01-18T13:50:39.389Z,3212
2019-01-18T13:51:39.163Z,3212
2019-01-18T13:52:39.418Z,3184
2019-01-18T13:53:39.430Z,3132
2019-01-18T13:54:39.441Z,3092
2019-01-18T13:55:39.459Z,3092
2019-01-18T13:56:39.478Z,3052
2019-01-18T13:57:39.482Z,3028
2019-01-18T13:58:39.498Z,2976
2019-01-18T13:59:54.228Z,2964
2019-01-18T14:00:54.198Z,2976
2019-01-18T14:01:39.562Z,2984
2019-01-18T14:02:48.329Z,2960
2019-01-18T14:03:40.412Z,2932
2019-01-18T14:04:39.576Z,2920
2019-01-18T14:05:54.306Z,2860
2019-01-18T14:06:39.608Z,2852
2019-01-18T14:07:54.278Z,2816
2019-01-18T14:08:39.629Z,2784
2019-01-18T14:09:39.690Z,2764
2019-01-18T14:10:54.315Z,2720
2019-01-18T14:11:39.671Z,2700
2019-01-18T14:12:39.741Z,2672
2019-01-18T14:13:42.268Z,2616
2019-01-18T14:14:39.716Z,2584
2019-01-18T14:15:54.382Z,2536
2019-01-18T14:16:39.738Z,2500
2019-01-18T14:17:40.173Z,2448
2019-01-18T14:18:39.765Z,2404
2019-01-18T14:20:39.782Z,2276
2019-01-18T14:21:39.846Z,2184
2019-01-18T14:22:39.810Z,2096
2019-01-18T14:23:39.826Z,2004
2019-01-18T14:24:39.836Z,1924
2019-01-18T14:25:54.512Z,1856
2019-01-18T14:26:39.914Z,1828
2019-01-18T14:27:39.875Z,1804
2019-01-18T14:28:39.887Z,1784
2019-01-18T14:29:39.900Z,1764
2019-01-18T14:30:42.945Z,1740
2019-01-18T14:31:54.640Z,1712
2019-01-18T14:32:39.985Z,1696
2019-01-18T14:33:39.958Z,1676
2019-01-18T14:34:39.963Z,1656
2019-01-18T14:35:40.076Z,1636
2019-01-18T14:36:40.044Z,1612
2019-01-18T14:37:40.014Z,1588
2019-01-18T14:38:40.015Z,1568
2019-01-18T14:39:40.029Z,1540
2019-01-18T14:40:54.706Z,1512
2019-01-18T14:41:40.069Z,1488
2019-01-18T14:42:54.780Z,1452
2019-01-18T14:43:54.748Z,1424
2019-01-18T14:44:40.153Z,1408
2019-01-18T14:45:40.111Z,1380
2019-01-18T14:46:54.785Z,1348
2019-01-18T14:47:39.892Z,1332
2019-01-18T14:48:40.195Z,1300
2019-01-18T14:49:40.160Z,1276
2019-01-18T14:50:40.172Z,1244
2019-01-18T14:51:40.195Z,1216